sensor_id;sensor_type;location;lat;lon;timestamp;P1;durP1;ratioP1;P2;durP2;ratioP2
22768;SDS011;13001;51.968;5.918;2023-07-20T00:00:45;189.72;;;177.25;;
22768;SDS011;13001;51.968;5.918;2023-07-20T00:03:13;191.47;;;178.87;;
22768;SDS011;13001;51.968;5.918;2023-07-20T00:05:42;181.85;;;170.12;;
22768;SDS011;13001;51.968;5.918;2023-07-20T00:08:10;182.68;;;170.65;;
22768;SDS011;13001;51.968;5.918;2023-07-20T00:10:37;183.45;;;171.43;;
22768;SDS011;13001;51.968;5.918;2023-07-20T00:13:05;193.50;;;180.97;;
22768;SDS011;13001;51.968;5.918;2023-07-20T00:15:32;208.13;;;195.00;;
22768;SDS011;13001;51.968;5.918;2023-07-20T00:17:59;217.32;;;203.58;;
22768;SDS011;13001;51.968;5.918;2023-07-20T00:20:26;223.70;;;209.83;;
22768;SDS011;13001;51.968;5.918;2023-07-20T00:22:54;245.53;;;230.27;;
22768;SDS011;13001;51.968;5.918;2023-07-20T00:25:27;249.42;;;233.78;;
22768;SDS011;13001;51.968;5.918;2023-07-20T00:27:51;273.32;;;255.85;;
22768;SDS011;13001;51.968;5.918;2023-07-20T00:30:19;288.60;;;270.00;;
22768;SDS011;13001;51.968;5.918;2023-07-20T00:32:46;304.15;;;284.55;;
22768;SDS011;13001;51.968;5.918;2023-07-20T00:35:14;309.18;;;289.40;;
22768;SDS011;13001;51.968;5.918;2023-07-20T00:37:41;301.58;;;282.02;;
22768;SDS011;13001;51.968;5.918;2023-07-20T00:40:08;315.15;;;295.23;;
22768;SDS011;13001;51.968;5.918;2023-07-20T00:42:35;321.55;;;301.18;;
22768;SDS011;13001;51.968;5.918;2023-07-20T00:45:03;345.30;;;323.48;;
22768;SDS011;13001;51.968;5.918;2023-07-20T00:47:30;341.80;;;319.93;;
22768;SDS011;13001;51.968;5.918;2023-07-20T00:49:58;349.37;;;327.13;;
22768;SDS011;13001;51.968;5.918;2023-07-20T00:52:25;375.60;;;351.60;;
22768;SDS011;13001;51.968;5.918;2023-07-20T00:54:54;351.40;;;328.90;;
22768;SDS011;13001;51.968;5.918;2023-07-20T00:57:23;350.93;;;329.13;;
22768;SDS011;13001;51.968;5.918;2023-07-20T00:59:52;354.55;;;332.25;;
22768;SDS011;13001;51.968;5.918;2023-07-20T01:02:19;355.02;;;332.62;;
22768;SDS011;13001;51.968;5.918;2023-07-20T01:04:46;356.50;;;334.27;;
22768;SDS011;13001;51.968;5.918;2023-07-20T01:07:17;349.03;;;327.07;;
22768;SDS011;13001;51.968;5.918;2023-07-20T01:09:55;357.45;;;335.48;;
22768;SDS011;13001;51.968;5.918;2023-07-20T01:12:36;357.27;;;335.30;;
22768;SDS011;13001;51.968;5.918;2023-07-20T01:15:02;353.73;;;332.02;;
22768;SDS011;13001;51.968;5.918;2023-07-20T01:17:29;344.35;;;323.35;;
22768;SDS011;13001;51.968;5.918;2023-07-20T01:19:56;342.05;;;320.85;;
22768;SDS011;13001;51.968;5.918;2023-07-20T01:25:19;339.23;;;318.55;;
22768;SDS011;13001;51.968;5.918;2023-07-20T01:30:25;349.12;;;327.75;;
22768;SDS011;13001;51.968;5.918;2023-07-20T01:32:40;341.73;;;320.63;;
22768;SDS011;13001;51.968;5.918;2023-07-20T01:35:08;346.43;;;325.50;;
22768;SDS011;13001;51.968;5.918;2023-07-20T01:37:39;343.00;;;321.93;;
22768;SDS011;13001;51.968;5.918;2023-07-20T01:40:08;358.77;;;336.57;;
22768;SDS011;13001;51.968;5.918;2023-07-20T01:42:36;351.07;;;329.77;;
22768;SDS011;13001;51.968;5.918;2023-07-20T01:45:03;351.65;;;329.98;;
22768;SDS011;13001;51.968;5.918;2023-07-20T01:47:30;337.77;;;316.85;;
22768;SDS011;13001;51.968;5.918;2023-07-20T01:49:57;344.55;;;323.15;;
22768;SDS011;13001;51.968;5.918;2023-07-20T01:52:25;353.55;;;331.73;;
22768;SDS011;13001;51.968;5.918;2023-07-20T01:54:52;355.98;;;334.20;;
22768;SDS011;13001;51.968;5.918;2023-07-20T01:57:19;351.83;;;330.30;;
22768;SDS011;13001;51.968;5.918;2023-07-20T01:59:46;336.30;;;315.55;;
22768;SDS011;13001;51.968;5.918;2023-07-20T02:02:14;350.13;;;328.70;;
22768;SDS011;13001;51.968;5.918;2023-07-20T02:04:41;337.08;;;315.95;;
22768;SDS011;13001;51.968;5.918;2023-07-20T02:07:08;304.07;;;284.67;;
22768;SDS011;13001;51.968;5.918;2023-07-20T02:09:36;290.02;;;271.65;;
22768;SDS011;13001;51.968;5.918;2023-07-20T02:12:03;282.00;;;264.13;;
22768;SDS011;13001;51.968;5.918;2023-07-20T02:14:30;256.98;;;240.85;;
22768;SDS011;13001;51.968;5.918;2023-07-20T02:16:57;254.97;;;239.02;;
22768;SDS011;13001;51.968;5.918;2023-07-20T02:19:25;248.32;;;232.40;;
22768;SDS011;13001;51.968;5.918;2023-07-20T02:21:53;243.35;;;228.15;;
22768;SDS011;13001;51.968;5.918;2023-07-20T02:24:20;255.05;;;238.82;;
22768;SDS011;13001;51.968;5.918;2023-07-20T02:26:47;242.45;;;227.28;;
22768;SDS011;13001;51.968;5.918;2023-07-20T02:29:16;237.68;;;222.82;;
22768;SDS011;13001;51.968;5.918;2023-07-20T02:31:43;224.20;;;210.15;;
22768;SDS011;13001;51.968;5.918;2023-07-20T02:34:11;241.73;;;226.47;;
22768;SDS011;13001;51.968;5.918;2023-07-20T02:36:38;266.63;;;249.62;;
22768;SDS011;13001;51.968;5.918;2023-07-20T02:39:05;280.80;;;262.90;;
22768;SDS011;13001;51.968;5.918;2023-07-20T02:41:33;290.27;;;271.57;;
22768;SDS011;13001;51.968;5.918;2023-07-20T02:44:00;281.98;;;263.98;;
22768;SDS011;13001;51.968;5.918;2023-07-20T02:46:29;308.82;;;289.05;;
22768;SDS011;13001;51.968;5.918;2023-07-20T02:48:57;315.10;;;294.95;;
22768;SDS011;13001;51.968;5.918;2023-07-20T02:51:24;302.73;;;283.47;;
22768;SDS011;13001;51.968;5.918;2023-07-20T02:53:51;300.93;;;281.53;;
22768;SDS011;13001;51.968;5.918;2023-07-20T02:56:18;307.85;;;288.45;;
22768;SDS011;13001;51.968;5.918;2023-07-20T02:58:46;320.35;;;300.07;;
22768;SDS011;13001;51.968;5.918;2023-07-20T03:01:13;329.77;;;309.07;;
22768;SDS011;13001;51.968;5.918;2023-07-20T03:03:41;307.25;;;287.77;;
22768;SDS011;13001;51.968;5.918;2023-07-20T03:06:11;301.87;;;282.20;;
22768;SDS011;13001;51.968;5.918;2023-07-20T03:08:38;316.27;;;296.07;;
22768;SDS011;13001;51.968;5.918;2023-07-20T03:11:07;300.80;;;281.60;;
22768;SDS011;13001;51.968;5.918;2023-07-20T03:13:34;295.63;;;276.62;;
22768;SDS011;13001;51.968;5.918;2023-07-20T03:16:01;294.73;;;275.70;;
22768;SDS011;13001;51.968;5.918;2023-07-20T03:18:29;272.40;;;254.85;;
22768;SDS011;13001;51.968;5.918;2023-07-20T03:20:56;253.60;;;237.37;;
22768;SDS011;13001;51.968;5.918;2023-07-20T03:23:24;252.68;;;236.72;;
22768;SDS011;13001;51.968;5.918;2023-07-20T03:25:52;235.60;;;220.78;;
22768;SDS011;13001;51.968;5.918;2023-07-20T03:28:21;264.68;;;247.88;;
22768;SDS011;13001;51.968;5.918;2023-07-20T03:30:57;263.47;;;246.70;;
22768;SDS011;13001;51.968;5.918;2023-07-20T03:33:26;250.18;;;234.43;;
22768;SDS011;13001;51.968;5.918;2023-07-20T03:35:54;229.47;;;215.03;;
22768;SDS011;13001;51.968;5.918;2023-07-20T03:38:22;246.72;;;231.23;;
22768;SDS011;13001;51.968;5.918;2023-07-20T03:40:52;218.42;;;204.82;;
22768;SDS011;13001;51.968;5.918;2023-07-20T03:43:20;247.50;;;232.17;;
22768;SDS011;13001;51.968;5.918;2023-07-20T03:45:47;252.10;;;236.18;;
22768;SDS011;13001;51.968;5.918;2023-07-20T03:48:18;270.65;;;253.65;;
22768;SDS011;13001;51.968;5.918;2023-07-20T03:50:46;267.60;;;250.75;;
22768;SDS011;13001;51.968;5.918;2023-07-20T03:53:14;279.70;;;261.68;;
22768;SDS011;13001;51.968;5.918;2023-07-20T03:55:44;295.37;;;276.13;;
22768;SDS011;13001;51.968;5.918;2023-07-20T03:58:14;264.25;;;247.85;;
22768;SDS011;13001;51.968;5.918;2023-07-20T04:00:47;293.23;;;274.42;;
22768;SDS011;13001;51.968;5.918;2023-07-20T04:03:17;338.60;;;316.75;;
22768;SDS011;13001;51.968;5.918;2023-07-20T04:05:44;365.12;;;342.73;;
22768;SDS011;13001;51.968;5.918;2023-07-20T04:08:12;395.67;;;370.80;;
22768;SDS011;13001;51.968;5.918;2023-07-20T04:10:42;357.45;;;335.15;;
22768;SDS011;13001;51.968;5.918;2023-07-20T04:13:08;268.85;;;253.05;;
22768;SDS011;13001;51.968;5.918;2023-07-20T04:15:35;158.35;;;149.07;;
22768;SDS011;13001;51.968;5.918;2023-07-20T04:18:03;160.40;;;150.78;;
22768;SDS011;13001;51.968;5.918;2023-07-20T04:20:30;172.57;;;162.57;;
22768;SDS011;13001;51.968;5.918;2023-07-20T04:22:58;145.50;;;137.27;;
22768;SDS011;13001;51.968;5.918;2023-07-20T04:25:25;121.27;;;114.27;;
22768;SDS011;13001;51.968;5.918;2023-07-20T04:27:52;127.50;;;120.30;;
22768;SDS011;13001;51.968;5.918;2023-07-20T04:30:20;199.38;;;187.82;;
22768;SDS011;13001;51.968;5.918;2023-07-20T04:32:49;269.70;;;254.47;;
22768;SDS011;13001;51.968;5.918;2023-07-20T04:35:17;265.70;;;250.82;;
22768;SDS011;13001;51.968;5.918;2023-07-20T04:37:44;299.67;;;282.92;;
22768;SDS011;13001;51.968;5.918;2023-07-20T04:40:15;314.27;;;296.77;;
22768;SDS011;13001;51.968;5.918;2023-07-20T04:42:41;297.48;;;280.95;;
22768;SDS011;13001;51.968;5.918;2023-07-20T04:45:08;177.53;;;167.53;;
22768;SDS011;13001;51.968;5.918;2023-07-20T04:47:35;121.53;;;114.57;;
22768;SDS011;13001;51.968;5.918;2023-07-20T04:50:03;72.73;;;68.80;;
22768;SDS011;13001;51.968;5.918;2023-07-20T04:52:30;62.83;;;59.43;;
22768;SDS011;13001;51.968;5.918;2023-07-20T04:54:58;81.20;;;76.80;;
22768;SDS011;13001;51.968;5.918;2023-07-20T04:57:26;83.07;;;78.57;;
22768;SDS011;13001;51.968;5.918;2023-07-20T04:59:53;69.42;;;65.72;;
22768;SDS011;13001;51.968;5.918;2023-07-20T05:02:20;62.60;;;59.27;;
22768;SDS011;13001;51.968;5.918;2023-07-20T05:04:47;57.23;;;54.13;;
22768;SDS011;13001;51.968;5.918;2023-07-20T05:07:15;66.60;;;63.00;;
22768;SDS011;13001;51.968;5.918;2023-07-20T05:09:42;91.70;;;86.57;;
22768;SDS011;13001;51.968;5.918;2023-07-20T05:12:09;104.60;;;98.82;;
22768;SDS011;13001;51.968;5.918;2023-07-20T05:14:38;104.72;;;99.03;;
22768;SDS011;13001;51.968;5.918;2023-07-20T05:17:05;82.12;;;77.65;;
22768;SDS011;13001;51.968;5.918;2023-07-20T05:19:33;43.55;;;41.25;;
22768;SDS011;13001;51.968;5.918;2023-07-20T05:22:00;36.00;;;34.15;;
22768;SDS011;13001;51.968;5.918;2023-07-20T05:24:27;29.70;;;28.17;;
22768;SDS011;13001;51.968;5.918;2023-07-20T05:26:54;22.42;;;21.33;;
22768;SDS011;13001;51.968;5.918;2023-07-20T05:29:22;19.55;;;18.55;;
22768;SDS011;13001;51.968;5.918;2023-07-20T05:31:49;22.93;;;21.80;;
22768;SDS011;13001;51.968;5.918;2023-07-20T05:34:16;46.20;;;43.75;;
22768;SDS011;13001;51.968;5.918;2023-07-20T05:36:43;45.85;;;43.52;;
22768;SDS011;13001;51.968;5.918;2023-07-20T05:39:11;44.90;;;42.60;;
22768;SDS011;13001;51.968;5.918;2023-07-20T05:41:38;37.70;;;35.80;;
22768;SDS011;13001;51.968;5.918;2023-07-20T05:44:05;44.20;;;41.92;;
22768;SDS011;13001;51.968;5.918;2023-07-20T05:46:32;32.10;;;30.50;;
22768;SDS011;13001;51.968;5.918;2023-07-20T05:49:00;28.15;;;26.73;;
22768;SDS011;13001;51.968;5.918;2023-07-20T05:51:27;162.88;;;153.27;;
22768;SDS011;13001;51.968;5.918;2023-07-20T05:53:55;171.95;;;161.70;;
22768;SDS011;13001;51.968;5.918;2023-07-20T05:56:22;179.68;;;169.10;;
22768;SDS011;13001;51.968;5.918;2023-07-20T05:58:49;155.93;;;146.87;;
22768;SDS011;13001;51.968;5.918;2023-07-20T06:01:16;66.95;;;63.28;;
22768;SDS011;13001;51.968;5.918;2023-07-20T06:03:45;52.30;;;49.53;;
22768;SDS011;13001;51.968;5.918;2023-07-20T06:06:12;36.90;;;35.00;;
22768;SDS011;13001;51.968;5.918;2023-07-20T06:08:41;31.37;;;29.77;;
22768;SDS011;13001;51.968;5.918;2023-07-20T06:11:08;34.63;;;32.83;;
22768;SDS011;13001;51.968;5.918;2023-07-20T06:13:35;45.83;;;43.47;;
22768;SDS011;13001;51.968;5.918;2023-07-20T06:16:03;49.77;;;47.17;;
22768;SDS011;13001;51.968;5.918;2023-07-20T06:18:30;75.35;;;71.35;;
22768;SDS011;13001;51.968;5.918;2023-07-20T06:20:57;65.47;;;62.00;;
22768;SDS011;13001;51.968;5.918;2023-07-20T06:23:25;56.00;;;53.10;;
22768;SDS011;13001;51.968;5.918;2023-07-20T06:25:52;52.60;;;49.80;;
22768;SDS011;13001;51.968;5.918;2023-07-20T06:28:19;66.00;;;62.50;;
22768;SDS011;13001;51.968;5.918;2023-07-20T06:30:46;65.03;;;61.65;;
22768;SDS011;13001;51.968;5.918;2023-07-20T06:33:14;62.62;;;59.33;;
22768;SDS011;13001;51.968;5.918;2023-07-20T06:35:41;67.17;;;63.68;;
22768;SDS011;13001;51.968;5.918;2023-07-20T06:38:09;60.75;;;57.58;;
22768;SDS011;13001;51.968;5.918;2023-07-20T06:40:36;63.58;;;60.28;;
22768;SDS011;13001;51.968;5.918;2023-07-20T06:43:04;52.88;;;50.12;;
22768;SDS011;13001;51.968;5.918;2023-07-20T06:45:31;41.30;;;39.15;;
22768;SDS011;13001;51.968;5.918;2023-07-20T06:47:58;39.88;;;37.83;;
22768;SDS011;13001;51.968;5.918;2023-07-20T06:50:25;34.60;;;32.83;;
22768;SDS011;13001;51.968;5.918;2023-07-20T06:52:53;39.15;;;37.15;;
22768;SDS011;13001;51.968;5.918;2023-07-20T06:55:20;36.20;;;34.35;;
22768;SDS011;13001;51.968;5.918;2023-07-20T06:57:47;37.98;;;36.08;;
22768;SDS011;13001;51.968;5.918;2023-07-20T07:00:14;33.45;;;31.75;;
22768;SDS011;13001;51.968;5.918;2023-07-20T07:02:42;31.20;;;29.60;;
22768;SDS011;13001;51.968;5.918;2023-07-20T07:05:09;30.35;;;28.85;;
22768;SDS011;13001;51.968;5.918;2023-07-20T07:07:36;25.77;;;24.50;;
22768;SDS011;13001;51.968;5.918;2023-07-20T07:10:04;36.98;;;35.08;;
22768;SDS011;13001;51.968;5.918;2023-07-20T07:12:31;49.27;;;46.68;;
22768;SDS011;13001;51.968;5.918;2023-07-20T07:14:59;48.15;;;45.65;;
22768;SDS011;13001;51.968;5.918;2023-07-20T07:17:26;36.93;;;35.08;;
22768;SDS011;13001;51.968;5.918;2023-07-20T07:19:54;23.60;;;22.40;;
22768;SDS011;13001;51.968;5.918;2023-07-20T07:22:22;33.40;;;31.70;;
22768;SDS011;13001;51.968;5.918;2023-07-20T07:24:49;29.27;;;27.77;;
22768;SDS011;13001;51.968;5.918;2023-07-20T07:27:17;27.77;;;26.37;;
22768;SDS011;13001;51.968;5.918;2023-07-20T07:29:44;24.80;;;23.52;;
22768;SDS011;13001;51.968;5.918;2023-07-20T07:32:11;23.38;;;22.27;;
22768;SDS011;13001;51.968;5.918;2023-07-20T07:34:38;31.37;;;29.77;;
22768;SDS011;13001;51.968;5.918;2023-07-20T07:37:06;37.42;;;35.52;;
22768;SDS011;13001;51.968;5.918;2023-07-20T07:39:33;32.20;;;30.60;;
22768;SDS011;13001;51.968;5.918;2023-07-20T07:42:00;27.13;;;25.80;;
22768;SDS011;13001;51.968;5.918;2023-07-20T07:44:28;24.02;;;22.82;;
22768;SDS011;13001;51.968;5.918;2023-07-20T07:46:55;26.70;;;25.40;;
22768;SDS011;13001;51.968;5.918;2023-07-20T07:49:23;43.23;;;41.02;;
22768;SDS011;13001;51.968;5.918;2023-07-20T07:51:50;53.27;;;50.47;;
22768;SDS011;13001;51.968;5.918;2023-07-20T07:54:17;48.78;;;46.18;;
22768;SDS011;13001;51.968;5.918;2023-07-20T07:56:45;45.80;;;43.40;;
22768;SDS011;13001;51.968;5.918;2023-07-20T07:59:12;49.73;;;47.13;;
22768;SDS011;13001;51.968;5.918;2023-07-20T08:01:43;48.92;;;46.42;;
22768;SDS011;13001;51.968;5.918;2023-07-20T08:04:10;47.67;;;45.17;;
22768;SDS011;13001;51.968;5.918;2023-07-20T08:06:38;52.53;;;49.80;;
22768;SDS011;13001;51.968;5.918;2023-07-20T08:09:06;51.37;;;48.68;;
22768;SDS011;13001;51.968;5.918;2023-07-20T08:11:33;48.63;;;46.13;;
22768;SDS011;13001;51.968;5.918;2023-07-20T08:14:00;53.05;;;50.25;;
22768;SDS011;13001;51.968;5.918;2023-07-20T08:16:28;31.93;;;30.23;;
22768;SDS011;13001;51.968;5.918;2023-07-20T08:18:55;35.35;;;33.58;;
22768;SDS011;13001;51.968;5.918;2023-07-20T08:21:22;44.47;;;42.17;;
22768;SDS011;13001;51.968;5.918;2023-07-20T08:23:49;45.40;;;43.10;;
22768;SDS011;13001;51.968;5.918;2023-07-20T08:26:17;41.47;;;39.33;;
22768;SDS011;13001;51.968;5.918;2023-07-20T08:28:44;27.50;;;26.15;;
22768;SDS011;13001;51.968;5.918;2023-07-20T08:31:12;45.00;;;42.70;;
22768;SDS011;13001;51.968;5.918;2023-07-20T08:33:39;53.70;;;50.90;;
22768;SDS011;13001;51.968;5.918;2023-07-20T08:36:08;50.80;;;48.10;;
22768;SDS011;13001;51.968;5.918;2023-07-20T08:38:35;48.58;;;46.05;;
22768;SDS011;13001;51.968;5.918;2023-07-20T08:41:04;40.90;;;38.83;;
22768;SDS011;13001;51.968;5.918;2023-07-20T08:43:33;58.02;;;54.93;;
22768;SDS011;13001;51.968;5.918;2023-07-20T08:46:05;57.00;;;54.10;;
22768;SDS011;13001;51.968;5.918;2023-07-20T08:48:33;55.37;;;52.47;;
22768;SDS011;13001;51.968;5.918;2023-07-20T08:51:01;35.98;;;34.18;;
22768;SDS011;13001;51.968;5.918;2023-07-20T08:53:28;30.03;;;28.47;;
22768;SDS011;13001;51.968;5.918;2023-07-20T08:55:56;45.55;;;43.20;;
22768;SDS011;13001;51.968;5.918;2023-07-20T08:58:25;57.33;;;54.38;;
22768;SDS011;13001;51.968;5.918;2023-07-20T09:00:54;58.42;;;55.40;;
22768;SDS011;13001;51.968;5.918;2023-07-20T09:03:22;53.58;;;50.78;;
22768;SDS011;13001;51.968;5.918;2023-07-20T09:05:49;56.40;;;53.50;;
22768;SDS011;13001;51.968;5.918;2023-07-20T09:08:16;62.60;;;59.27;;
22768;SDS011;13001;51.968;5.918;2023-07-20T09:10:44;44.65;;;42.38;;
22768;SDS011;13001;51.968;5.918;2023-07-20T09:13:15;68.52;;;64.95;;
22768;SDS011;13001;51.968;5.918;2023-07-20T09:15:40;114.60;;;108.43;;
22768;SDS011;13001;51.968;5.918;2023-07-20T09:18:08;98.90;;;93.60;;
22768;SDS011;13001;51.968;5.918;2023-07-20T09:20:39;123.20;;;116.47;;
22768;SDS011;13001;51.968;5.918;2023-07-20T09:23:07;64.93;;;61.53;;
22768;SDS011;13001;51.968;5.918;2023-07-20T09:25:35;57.83;;;54.83;;
22768;SDS011;13001;51.968;5.918;2023-07-20T09:28:03;49.63;;;47.03;;
22768;SDS011;13001;51.968;5.918;2023-07-20T09:30:30;55.05;;;52.20;;
22768;SDS011;13001;51.968;5.918;2023-07-20T09:32:59;61.15;;;57.85;;
22768;SDS011;13001;51.968;5.918;2023-07-20T09:35:27;47.17;;;44.77;;
22768;SDS011;13001;51.968;5.918;2023-07-20T09:38:00;52.67;;;49.88;;
22768;SDS011;13001;51.968;5.918;2023-07-20T09:40:30;57.05;;;54.08;;
22768;SDS011;13001;51.968;5.918;2023-07-20T09:42:58;68.40;;;64.80;;
22768;SDS011;13001;51.968;5.918;2023-07-20T09:45:34;54.75;;;51.95;;
22768;SDS011;13001;51.968;5.918;2023-07-20T09:48:05;68.17;;;64.62;;
22768;SDS011;13001;51.968;5.918;2023-07-20T09:50:42;65.15;;;61.65;;
22768;SDS011;13001;51.968;5.918;2023-07-20T09:53:13;50.75;;;48.08;;
22768;SDS011;13001;51.968;5.918;2023-07-20T09:55:44;69.70;;;66.05;;
22768;SDS011;13001;51.968;5.918;2023-07-20T09:58:12;98.67;;;93.40;;
22768;SDS011;13001;51.968;5.918;2023-07-20T10:00:40;64.15;;;60.78;;
22768;SDS011;13001;51.968;5.918;2023-07-20T10:03:14;66.02;;;62.43;;
22768;SDS011;13001;51.968;5.918;2023-07-20T10:05:46;48.65;;;46.15;;
22768;SDS011;13001;51.968;5.918;2023-07-20T10:08:13;71.60;;;67.80;;
22768;SDS011;13001;51.968;5.918;2023-07-20T10:10:42;97.65;;;92.42;;
22768;SDS011;13001;51.968;5.918;2023-07-20T10:13:10;106.50;;;100.72;;
22768;SDS011;13001;51.968;5.918;2023-07-20T10:15:43;125.47;;;118.57;;
22768;SDS011;13001;51.968;5.918;2023-07-20T10:18:12;90.72;;;85.85;;
22768;SDS011;13001;51.968;5.918;2023-07-20T10:20:43;106.43;;;100.67;;
22768;SDS011;13001;51.968;5.918;2023-07-20T10:23:09;131.35;;;123.90;;
22768;SDS011;13001;51.968;5.918;2023-07-20T10:25:36;257.27;;;243.05;;
22768;SDS011;13001;51.968;5.918;2023-07-20T10:28:05;273.65;;;258.32;;
22768;SDS011;13001;51.968;5.918;2023-07-20T10:30:36;245.13;;;231.40;;
22768;SDS011;13001;51.968;5.918;2023-07-20T10:33:04;238.12;;;224.73;;
22768;SDS011;13001;51.968;5.918;2023-07-20T10:35:51;212.85;;;200.62;;
22768;SDS011;13001;51.968;5.918;2023-07-20T10:38:01;232.12;;;219.07;;
22768;SDS011;13001;51.968;5.918;2023-07-20T10:40:38;230.30;;;217.30;;
22768;SDS011;13001;51.968;5.918;2023-07-20T10:43:04;215.52;;;203.47;;
22768;SDS011;13001;51.968;5.918;2023-07-20T10:48:03;135.12;;;127.60;;
22768;SDS011;13001;51.968;5.918;2023-07-20T10:50:36;210.43;;;198.85;;
22768;SDS011;13001;51.968;5.918;2023-07-20T10:53:13;113.28;;;107.03;;
22768;SDS011;13001;51.968;5.918;2023-07-20T10:55:41;96.17;;;90.95;;
22768;SDS011;13001;51.968;5.918;2023-07-20T10:58:13;228.05;;;215.47;;
22768;SDS011;13001;51.968;5.918;2023-07-20T11:03:31;169.43;;;159.97;;
22768;SDS011;13001;51.968;5.918;2023-07-20T11:05:56;146.60;;;138.43;;
22768;SDS011;13001;51.968;5.918;2023-07-20T11:08:39;198.07;;;187.03;;
22768;SDS011;13001;51.968;5.918;2023-07-20T11:11:22;170.38;;;160.85;;
22768;SDS011;13001;51.968;5.918;2023-07-20T11:14:07;138.68;;;131.00;;
22768;SDS011;13001;51.968;5.918;2023-07-20T11:16:34;157.72;;;148.97;;
22768;SDS011;13001;51.968;5.918;2023-07-20T11:19:02;190.45;;;179.82;;
22768;SDS011;13001;51.968;5.918;2023-07-20T11:21:37;179.80;;;169.80;;
22768;SDS011;13001;51.968;5.918;2023-07-20T11:24:05;175.70;;;165.73;;
22768;SDS011;13001;51.968;5.918;2023-07-20T11:26:40;221.47;;;209.37;;
22768;SDS011;13001;51.968;5.918;2023-07-20T11:29:07;202.95;;;191.85;;
22768;SDS011;13001;51.968;5.918;2023-07-20T11:31:35;209.27;;;197.72;;
22768;SDS011;13001;51.968;5.918;2023-07-20T11:34:02;166.15;;;156.90;;
22768;SDS011;13001;51.968;5.918;2023-07-20T11:36:29;93.60;;;88.52;;
22768;SDS011;13001;51.968;5.918;2023-07-20T11:38:57;87.10;;;82.37;;
22768;SDS011;13001;51.968;5.918;2023-07-20T11:41:25;79.30;;;75.03;;
22768;SDS011;13001;51.968;5.918;2023-07-20T11:43:53;117.62;;;111.22;;
22768;SDS011;13001;51.968;5.918;2023-07-20T11:46:21;140.15;;;132.45;;
22768;SDS011;13001;51.968;5.918;2023-07-20T11:48:48;136.57;;;129.15;;
22768;SDS011;13001;51.968;5.918;2023-07-20T11:51:16;136.15;;;128.65;;
22768;SDS011;13001;51.968;5.918;2023-07-20T11:53:48;145.68;;;137.65;;
22768;SDS011;13001;51.968;5.918;2023-07-20T11:56:14;152.60;;;144.10;;
22768;SDS011;13001;51.968;5.918;2023-07-20T11:58:41;190.05;;;179.15;;
22768;SDS011;13001;51.968;5.918;2023-07-20T12:01:09;212.42;;;200.53;;
22768;SDS011;13001;51.968;5.918;2023-07-20T12:03:37;232.55;;;219.43;;
22768;SDS011;13001;51.968;5.918;2023-07-20T12:06:10;233.20;;;220.15;;
22768;SDS011;13001;51.968;5.918;2023-07-20T12:08:38;279.15;;;263.55;;
22768;SDS011;13001;51.968;5.918;2023-07-20T12:11:07;266.23;;;251.50;;
22768;SDS011;13001;51.968;5.918;2023-07-20T12:13:35;238.70;;;225.53;;
22768;SDS011;13001;51.968;5.918;2023-07-20T12:16:09;251.67;;;237.75;;
22768;SDS011;13001;51.968;5.918;2023-07-20T12:18:37;271.60;;;256.60;;
22768;SDS011;13001;51.968;5.918;2023-07-20T12:21:05;271.82;;;256.63;;
22768;SDS011;13001;51.968;5.918;2023-07-20T12:23:36;189.87;;;179.07;;
22768;SDS011;13001;51.968;5.918;2023-07-20T12:26:09;150.97;;;142.35;;
22768;SDS011;13001;51.968;5.918;2023-07-20T12:28:39;136.40;;;128.78;;
22768;SDS011;13001;51.968;5.918;2023-07-20T12:31:08;109.05;;;103.07;;
22768;SDS011;13001;51.968;5.918;2023-07-20T12:33:36;79.03;;;74.72;;
22768;SDS011;13001;51.968;5.918;2023-07-20T12:36:04;67.12;;;63.48;;
22768;SDS011;13001;51.968;5.918;2023-07-20T12:38:31;97.40;;;92.17;;
22768;SDS011;13001;51.968;5.918;2023-07-20T12:41:02;93.80;;;88.70;;
22768;SDS011;13001;51.968;5.918;2023-07-20T12:43:30;64.72;;;61.30;;
22768;SDS011;13001;51.968;5.918;2023-07-20T12:45:58;61.20;;;57.90;;
22768;SDS011;13001;51.968;5.918;2023-07-20T12:48:26;79.62;;;75.28;;
22768;SDS011;13001;51.968;5.918;2023-07-20T12:50:53;96.10;;;90.90;;
22768;SDS011;13001;51.968;5.918;2023-07-20T12:53:21;107.43;;;101.53;;
22768;SDS011;13001;51.968;5.918;2023-07-20T12:55:48;90.97;;;86.15;;
22768;SDS011;13001;51.968;5.918;2023-07-20T12:58:17;91.92;;;86.95;;
22768;SDS011;13001;51.968;5.918;2023-07-20T13:00:46;76.02;;;71.95;;
22768;SDS011;13001;51.968;5.918;2023-07-20T13:03:14;63.17;;;59.77;;
22768;SDS011;13001;51.968;5.918;2023-07-20T13:05:42;67.47;;;63.75;;
22768;SDS011;13001;51.968;5.918;2023-07-20T13:08:10;61.25;;;57.98;;
22768;SDS011;13001;51.968;5.918;2023-07-20T13:10:38;57.70;;;54.60;;
22768;SDS011;13001;51.968;5.918;2023-07-20T13:13:05;65.15;;;61.68;;
22768;SDS011;13001;51.968;5.918;2023-07-20T13:15:32;74.10;;;70.10;;
22768;SDS011;13001;51.968;5.918;2023-07-20T13:18:01;66.80;;;63.28;;
22768;SDS011;13001;51.968;5.918;2023-07-20T13:20:29;74.92;;;70.75;;
22768;SDS011;13001;51.968;5.918;2023-07-20T13:22:56;75.20;;;71.15;;
22768;SDS011;13001;51.968;5.918;2023-07-20T13:25:24;35.75;;;33.85;;
22768;SDS011;13001;51.968;5.918;2023-07-20T13:27:51;37.25;;;35.25;;
22768;SDS011;13001;51.968;5.918;2023-07-20T13:30:19;38.75;;;36.75;;
22768;SDS011;13001;51.968;5.918;2023-07-20T13:32:47;53.60;;;50.80;;
22768;SDS011;13001;51.968;5.918;2023-07-20T13:35:16;55.40;;;52.50;;
22768;SDS011;13001;51.968;5.918;2023-07-20T13:37:44;61.17;;;57.97;;
22768;SDS011;13001;51.968;5.918;2023-07-20T13:40:12;72.65;;;68.72;;
22768;SDS011;13001;51.968;5.918;2023-07-20T13:42:41;81.05;;;76.65;;
22768;SDS011;13001;51.968;5.918;2023-07-20T13:45:08;81.32;;;76.92;;
22768;SDS011;13001;51.968;5.918;2023-07-20T13:47:36;104.27;;;98.45;;
22768;SDS011;13001;51.968;5.918;2023-07-20T13:50:03;125.73;;;118.63;;
22768;SDS011;13001;51.968;5.918;2023-07-20T13:52:30;86.90;;;82.20;;
22768;SDS011;13001;51.968;5.918;2023-07-20T13:54:58;130.60;;;122.87;;
22768;SDS011;13001;51.968;5.918;2023-07-20T13:57:25;111.50;;;105.30;;
22768;SDS011;13001;51.968;5.918;2023-07-20T13:59:52;127.62;;;120.30;;
22768;SDS011;13001;51.968;5.918;2023-07-20T14:02:21;121.13;;;114.15;;
22768;SDS011;13001;51.968;5.918;2023-07-20T14:04:51;126.85;;;119.65;;
22768;SDS011;13001;51.968;5.918;2023-07-20T14:07:18;151.18;;;142.53;;
22768;SDS011;13001;51.968;5.918;2023-07-20T14:09:45;159.93;;;150.50;;
22768;SDS011;13001;51.968;5.918;2023-07-20T14:12:12;164.70;;;155.30;;
22768;SDS011;13001;51.968;5.918;2023-07-20T14:14:42;181.77;;;171.57;;
22768;SDS011;13001;51.968;5.918;2023-07-20T14:17:10;167.40;;;157.80;;
22768;SDS011;13001;51.968;5.918;2023-07-20T14:19:38;166.22;;;156.82;;
22768;SDS011;13001;51.968;5.918;2023-07-20T14:22:05;174.70;;;165.00;;
22768;SDS011;13001;51.968;5.918;2023-07-20T14:24:32;161.22;;;152.12;;